createdAt,value
2022-11-24T00:01:24.059Z,5.07
2022-11-24T00:03:56.744Z,5.33
2022-11-24T00:06:25.894Z,4.90
2022-11-24T00:08:55.147Z,4.13
2022-11-24T00:11:26.729Z,7.97
2022-11-24T00:13:55.424Z,5.20
2022-11-24T00:16:27.542Z,5.37
2022-11-24T00:18:59.016Z,6.17
2022-11-24T00:21:31.052Z,5.60
2022-11-24T00:23:59.924Z,6.17
2022-11-24T00:26:30.715Z,5.97
2022-11-24T00:29:01.079Z,6.77
2022-11-24T00:31:32.823Z,7.57
2022-11-24T00:34:04.010Z,6.60
2022-11-24T00:36:34.882Z,7.20
2022-11-24T00:39:06.341Z,5.03
2022-11-24T00:41:35.452Z,8.20
2022-11-24T00:44:03.830Z,6.73
2022-11-24T00:46:33.565Z,5.10
2022-11-24T00:49:02.172Z,7.68
2022-11-24T00:51:31.412Z,5.00
2022-11-24T00:54:01.173Z,7.83
2022-11-24T00:56:30.691Z,9.07
2022-11-24T00:58:58.982Z,6.93
2022-11-24T01:01:30.994Z,9.03
2022-11-24T01:04:02.603Z,13.13
2022-11-24T01:06:32.392Z,10.80
2022-11-24T01:09:00.672Z,10.00
2022-11-24T01:11:53.092Z,8.50
2022-11-24T01:14:23.599Z,9.43
2022-11-24T01:16:52.197Z,8.67
2022-11-24T01:19:22.360Z,8.90
2022-11-24T01:21:51.163Z,10.63
2022-11-24T01:24:19.610Z,7.50
2022-11-24T01:26:47.913Z,12.40
2022-11-24T01:29:17.520Z,13.33
2022-11-24T01:31:45.671Z,9.40
2022-11-24T01:34:13.993Z,14.93
2022-11-24T01:36:43.540Z,7.30
2022-11-24T01:39:11.918Z,11.23
2022-11-24T01:41:40.337Z,11.88
2022-11-24T01:44:24.188Z,8.07
2022-11-24T01:46:59.069Z,8.50
2022-11-24T01:49:38.961Z,9.00
2022-11-24T01:52:14.468Z,9.90
2022-11-24T01:54:48.099Z,9.50
2022-11-24T01:57:24.510Z,13.40
2022-11-24T01:59:58.489Z,7.00
2022-11-24T02:02:30.255Z,10.23
2022-11-24T02:05:03.870Z,9.82
2022-11-24T02:07:34.162Z,8.70
2022-11-24T02:10:05.909Z,13.43
2022-11-24T02:12:35.392Z,8.40
2022-11-24T02:15:03.921Z,12.03
2022-11-24T02:17:32.117Z,15.80
2022-11-24T02:20:03.914Z,17.03
2022-11-24T02:22:45.641Z,9.50
2022-11-24T02:25:24.718Z,12.67
2022-11-24T02:27:56.806Z,15.23
2022-11-24T02:30:25.292Z,15.53
2022-11-24T02:32:54.022Z,16.87
2022-11-24T02:35:22.911Z,14.23
2022-11-24T02:37:51.041Z,12.38
2022-11-24T02:40:25.443Z,14.80
2022-11-24T02:42:59.781Z,10.05
2022-11-24T02:45:28.953Z,9.20
2022-11-24T02:47:57.048Z,11.00
2022-11-24T02:50:26.971Z,9.48
2022-11-24T02:52:55.309Z,10.27
2022-11-24T02:55:23.528Z,8.77
2022-11-24T02:57:51.769Z,8.85
2022-11-24T03:00:21.795Z,13.55
2022-11-24T03:02:50.057Z,10.38
2022-11-24T03:05:19.162Z,11.20
2022-11-24T03:07:47.391Z,9.97
2022-11-24T03:10:15.926Z,13.40
2022-11-24T03:12:44.127Z,11.13
2022-11-24T03:15:13.002Z,10.13
2022-11-24T03:17:42.489Z,12.13
2022-11-24T03:20:12.444Z,12.55
2022-11-24T03:22:41.570Z,16.63
2022-11-24T03:25:11.362Z,14.77
2022-11-24T03:27:39.491Z,15.47
2022-11-24T03:30:09.915Z,14.43
2022-11-24T03:32:38.202Z,10.43
2022-11-24T03:35:08.761Z,15.35
2022-11-24T03:37:37.211Z,12.65
2022-11-24T03:40:06.899Z,12.07
2022-11-24T03:42:35.007Z,11.17
2022-11-24T03:45:29.911Z,10.35
2022-11-24T03:47:52.826Z,12.43
2022-11-24T03:50:22.301Z,16.63
2022-11-24T03:52:50.397Z,8.37
2022-11-24T03:55:18.495Z,18.20
2022-11-24T03:57:46.691Z,13.88
2022-11-24T04:00:16.035Z,13.02
2022-11-24T04:02:44.306Z,11.40
2022-11-24T04:05:12.498Z,16.53
2022-11-24T04:07:42.314Z,10.80
2022-11-24T04:10:10.855Z,13.85
2022-11-24T04:12:43.965Z,13.50
2022-11-24T04:15:13.725Z,13.43
2022-11-24T04:17:41.977Z,12.73
2022-11-24T04:20:12.228Z,16.67
2022-11-24T04:22:41.968Z,8.73
2022-11-24T04:25:11.602Z,15.65
2022-11-24T04:27:40.034Z,9.30
2022-11-24T04:30:09.806Z,11.60
2022-11-24T04:32:38.424Z,11.63
2022-11-24T04:35:07.651Z,17.73
2022-11-24T04:37:38.906Z,14.25
2022-11-24T04:40:11.625Z,16.13
2022-11-24T04:42:40.219Z,8.27
2022-11-24T04:45:09.485Z,14.30
2022-11-24T04:47:37.566Z,11.48
2022-11-24T04:50:07.667Z,10.83
2022-11-24T04:52:36.071Z,10.15
2022-11-24T04:55:04.289Z,15.13
2022-11-24T04:57:33.790Z,11.80
2022-11-24T05:00:01.907Z,10.65
2022-11-24T05:02:30.104Z,12.57
2022-11-24T05:04:58.206Z,12.30
2022-11-24T05:07:26.297Z,9.93
2022-11-24T05:10:12.044Z,11.83
2022-11-24T05:12:41.969Z,14.50
2022-11-24T05:15:12.437Z,12.87
2022-11-24T05:17:40.805Z,14.50
2022-11-24T05:20:09.865Z,15.73
2022-11-24T05:22:37.973Z,15.17
2022-11-24T05:25:06.900Z,10.40
2022-11-24T05:27:35.093Z,12.87
2022-11-24T05:30:05.779Z,10.00
2022-11-24T05:32:34.055Z,15.20
2022-11-24T05:35:04.424Z,16.08
2022-11-24T05:37:32.705Z,11.73
2022-11-24T05:40:00.883Z,18.27
2022-11-24T05:42:46.564Z,10.63
2022-11-24T05:45:20.406Z,11.43
2022-11-24T05:47:49.976Z,13.38
2022-11-24T05:50:21.159Z,13.33
2022-11-24T05:52:49.698Z,13.47
2022-11-24T05:55:19.427Z,11.97
2022-11-24T05:57:47.588Z,12.47
2022-11-24T06:00:20.011Z,14.67
2022-11-24T06:02:49.254Z,12.88
2022-11-24T06:05:17.842Z,12.57
2022-11-24T06:07:46.270Z,9.43
2022-11-24T06:10:15.267Z,9.37
2022-11-24T06:12:43.460Z,12.53
2022-11-24T06:15:12.388Z,6.90
2022-11-24T06:17:42.123Z,15.00
2022-11-24T06:20:12.747Z,12.90
2022-11-24T06:22:40.908Z,15.00
2022-11-24T06:25:10.546Z,10.73
2022-11-24T06:27:38.710Z,6.93
2022-11-24T06:30:08.183Z,7.87
2022-11-24T06:32:36.264Z,9.93
2022-11-24T06:35:06.917Z,10.03
2022-11-24T06:37:37.634Z,10.43
2022-11-24T06:40:08.731Z,8.20
2022-11-24T06:42:37.298Z,9.67
2022-11-24T06:45:09.281Z,4.20
2022-11-24T06:47:38.143Z,13.20
2022-11-24T06:50:10.956Z,8.83
2022-11-24T06:52:39.442Z,7.90
2022-11-24T06:55:09.263Z,9.27
2022-11-24T06:57:37.544Z,9.20
2022-11-24T07:00:07.809Z,7.77
2022-11-24T07:02:38.034Z,7.77
2022-11-24T07:05:11.081Z,5.33
2022-11-24T07:07:39.324Z,9.90
2022-11-24T07:10:09.142Z,9.67
2022-11-24T07:12:37.264Z,6.27
2022-11-24T07:15:06.855Z,7.43
2022-11-24T07:17:37.150Z,7.97
2022-11-24T07:20:06.719Z,11.33
2022-11-24T07:22:36.525Z,10.47
2022-11-24T07:25:07.306Z,5.03
2022-11-24T07:27:35.581Z,8.70
2022-11-24T07:30:04.465Z,10.30
2022-11-24T07:32:32.917Z,5.83
2022-11-24T07:35:01.386Z,11.40
2022-11-24T07:37:31.550Z,9.50
2022-11-24T07:40:01.450Z,5.97
2022-11-24T07:42:29.554Z,6.83
2022-11-24T07:44:57.711Z,9.00
2022-11-24T07:47:25.831Z,6.70
2022-11-24T07:49:53.931Z,7.90
2022-11-24T07:52:22.043Z,11.80
2022-11-24T07:54:50.166Z,7.97
2022-11-24T07:57:19.627Z,8.87
2022-11-24T07:59:47.753Z,6.67
2022-11-24T08:02:15.871Z,12.10
2022-11-24T08:04:43.983Z,9.23
2022-11-24T08:07:12.137Z,9.27
2022-11-24T08:09:40.341Z,10.88
2022-11-24T08:12:08.888Z,9.30
2022-11-24T08:14:38.382Z,9.43
2022-11-24T08:17:06.549Z,9.77
2022-11-24T08:19:34.884Z,12.33
2022-11-24T08:22:03.034Z,6.87
2022-11-24T08:24:31.444Z,11.75
2022-11-24T08:26:59.872Z,11.10
2022-11-24T08:29:30.357Z,10.30
2022-11-24T08:31:59.994Z,7.83
2022-11-24T08:34:28.165Z,11.13
2022-11-24T08:36:56.381Z,8.07
2022-11-24T08:39:24.642Z,6.57
2022-11-24T08:41:52.822Z,10.50
2022-11-24T08:44:20.995Z,10.88
2022-11-24T08:46:49.850Z,11.35
2022-11-24T08:49:19.747Z,9.88
2022-11-24T08:51:48.608Z,10.88
2022-11-24T08:54:18.649Z,11.85
2022-11-24T08:56:47.028Z,12.23
2022-11-24T08:59:15.902Z,12.00
2022-11-24T09:01:44.600Z,9.93
2022-11-24T09:04:12.857Z,10.50
2022-11-24T09:06:42.415Z,8.43
2022-11-24T09:09:12.068Z,10.27
2022-11-24T09:11:40.249Z,9.38
2022-11-24T09:14:08.433Z,5.37
2022-11-24T09:16:36.878Z,7.55
2022-11-24T09:19:07.962Z,4.57
2022-11-24T09:21:38.865Z,7.63
2022-11-24T09:24:09.415Z,10.68
2022-11-24T09:26:44.556Z,7.95
2022-11-24T09:29:14.678Z,6.03
2022-11-24T09:31:42.944Z,7.10
2022-11-24T09:34:15.864Z,9.55
2022-11-24T09:36:44.225Z,5.05
2022-11-24T09:39:13.791Z,10.35
2022-11-24T09:42:06.798Z,6.82
2022-11-24T09:45:10.985Z,7.18
2022-11-24T09:47:59.420Z,7.73
2022-11-24T09:50:33.055Z,8.13
2022-11-24T09:53:10.176Z,7.40
2022-11-24T09:55:48.147Z,4.43
2022-11-24T09:58:34.879Z,7.80
2022-11-24T10:01:06.822Z,4.55
2022-11-24T10:03:40.295Z,5.20
2022-11-24T10:06:24.226Z,4.82
2022-11-24T10:09:45.029Z,7.15
2022-11-24T10:12:40.348Z,7.43
2022-11-24T10:15:41.803Z,4.77
2022-11-24T10:18:47.761Z,5.70
2022-11-24T10:21:42.983Z,6.27
2022-11-24T10:24:41.070Z,8.37
2022-11-24T10:27:20.752Z,8.30
2022-11-24T10:29:52.850Z,6.22
2022-11-24T10:32:26.440Z,6.63
2022-11-24T10:35:00.967Z,7.25
2022-11-24T10:37:37.545Z,8.25
2022-11-24T10:40:33.443Z,4.72
2022-11-24T10:43:10.425Z,5.85
2022-11-24T10:45:40.371Z,6.82
2022-11-24T10:48:25.057Z,8.27
2022-11-24T10:51:13.136Z,14.57
2022-11-24T10:53:43.883Z,5.35
2022-11-24T10:56:12.116Z,5.20
2022-11-24T10:58:41.624Z,12.50
2022-11-24T11:01:31.675Z,6.38
2022-11-24T11:04:01.696Z,9.10
2022-11-24T11:06:32.349Z,5.77
2022-11-24T11:09:20.121Z,4.93
2022-11-24T11:11:49.456Z,5.50
2022-11-24T11:14:35.490Z,5.37
2022-11-24T11:17:11.579Z,5.82
2022-11-24T11:19:50.012Z,5.13
2022-11-24T11:22:26.641Z,5.70
2022-11-24T11:25:15.739Z,5.45
2022-11-24T11:27:44.050Z,4.75
2022-11-24T11:36:12.785Z,7.95
2022-11-24T11:38:41.920Z,10.27
2022-11-24T11:41:21.434Z,9.27
2022-11-24T11:43:58.099Z,5.05
2022-11-24T11:46:32.473Z,8.48
2022-11-24T11:49:01.111Z,9.57
2022-11-24T11:51:48.166Z,7.07
2022-11-24T11:54:34.478Z,5.03
2022-11-24T11:57:12.584Z,9.00
2022-11-24T11:59:59.025Z,8.85
2022-11-24T12:03:06.123Z,4.38
2022-11-24T12:05:48.930Z,7.30
2022-11-24T12:09:03.361Z,6.65
2022-11-24T12:11:34.770Z,7.38
2022-11-24T12:14:19.604Z,4.72
2022-11-24T12:17:02.917Z,5.00
2022-11-24T12:19:51.382Z,7.35
2022-11-24T12:22:33.195Z,4.28
2022-11-24T12:25:19.612Z,5.28
2022-11-24T12:28:02.112Z,7.00
2022-11-24T12:30:41.403Z,5.05
2022-11-24T12:33:31.052Z,6.55
2022-11-24T12:36:14.659Z,8.48
2022-11-24T12:39:01.118Z,5.82
2022-11-24T12:41:52.124Z,5.75
2022-11-24T12:44:50.188Z,6.13
2022-11-24T12:47:26.224Z,4.18
2022-11-24T12:50:08.007Z,5.25
2022-11-24T12:52:43.258Z,4.65
2022-11-24T12:55:20.339Z,2.65
2022-11-24T12:57:57.692Z,4.95
2022-11-24T13:00:39.509Z,5.22
2022-11-24T13:03:26.423Z,5.20
2022-11-24T13:06:00.617Z,5.35
2022-11-24T13:08:32.354Z,9.15
2022-11-24T13:11:39.161Z,9.13
2022-11-24T13:14:14.778Z,4.90
2022-11-24T13:17:21.776Z,5.85
2022-11-24T13:19:41.484Z,4.57
2022-11-24T13:22:23.735Z,4.03
2022-11-24T13:25:18.172Z,3.85
2022-11-24T13:27:50.681Z,3.60
2022-11-24T13:31:09.655Z,3.05
2022-11-24T13:33:40.321Z,3.78
2022-11-24T13:36:54.719Z,4.72
2022-11-24T13:39:47.437Z,6.22
2022-11-24T13:42:43.047Z,6.72
2022-11-24T13:45:50.155Z,4.60
2022-11-24T13:49:02.032Z,7.30
2022-11-24T13:51:30.371Z,6.75
2022-11-24T13:54:01.921Z,2.35
2022-11-24T13:56:32.379Z,6.13
2022-11-24T13:59:18.674Z,3.28
2022-11-24T14:01:57.455Z,3.47
2022-11-24T14:04:31.418Z,6.65
2022-11-24T14:07:08.376Z,4.55
2022-11-24T14:09:43.908Z,5.90
2022-11-24T14:12:16.930Z,4.47
2022-11-24T14:14:49.061Z,4.07
2022-11-24T14:17:22.604Z,5.47
2022-11-24T14:19:53.683Z,7.85
2022-11-24T14:22:26.520Z,4.13
2022-11-24T14:24:57.126Z,4.18
2022-11-24T14:27:31.406Z,4.82
2022-11-24T14:30:03.605Z,5.53
2022-11-24T14:32:31.863Z,5.43
2022-11-24T14:35:00.261Z,4.80
2022-11-24T14:37:28.493Z,3.53
2022-11-24T14:39:56.724Z,3.20
2022-11-24T14:42:28.463Z,7.40
2022-11-24T14:45:02.871Z,6.13
2022-11-24T14:47:33.894Z,3.45
2022-11-24T14:50:14.251Z,3.95
2022-11-24T14:52:50.632Z,2.17
2022-11-24T14:55:28.938Z,2.90
2022-11-24T14:57:57.538Z,6.82
2022-11-24T15:00:32.549Z,5.65
2022-11-24T15:03:18.102Z,5.35
2022-11-24T15:05:56.095Z,4.45
2022-11-24T15:08:25.754Z,1.90
2022-11-24T15:11:00.793Z,5.00
2022-11-24T15:13:33.983Z,4.45
2022-11-24T15:16:07.027Z,7.72
2022-11-24T15:18:41.920Z,6.15
2022-11-24T15:21:15.611Z,14.25
2022-11-24T15:24:07.809Z,11.80
2022-11-24T15:26:41.728Z,3.88
2022-11-24T15:29:11.167Z,7.32
2022-11-24T15:31:44.187Z,7.60
2022-11-24T15:34:15.950Z,7.03
2022-11-24T15:36:46.897Z,5.80
2022-11-24T15:39:15.011Z,6.77
2022-11-24T15:41:43.154Z,7.43
2022-11-24T15:44:11.806Z,8.68
2022-11-24T15:46:41.426Z,9.18
2022-11-24T15:49:09.820Z,8.77
2022-11-24T15:51:44.570Z,8.80
2022-11-24T15:54:16.987Z,8.82
2022-11-24T15:56:45.366Z,3.40
2022-11-24T15:59:20.203Z,9.45
2022-11-24T16:01:50.935Z,9.18
2022-11-24T16:04:19.424Z,11.07
2022-11-24T16:06:47.972Z,14.82
2022-11-24T16:09:18.102Z,12.45
2022-11-24T16:11:46.265Z,9.60
2022-11-24T16:14:14.721Z,8.37
2022-11-24T16:16:43.808Z,6.93
2022-11-24T16:19:15.754Z,8.77
2022-11-24T16:21:43.876Z,8.18
2022-11-24T16:24:12.191Z,8.70
2022-11-24T16:26:40.374Z,7.65
2022-11-24T16:29:08.496Z,5.20
2022-11-24T16:31:36.890Z,14.07
2022-11-24T16:34:05.110Z,8.37
2022-11-24T16:36:34.809Z,10.98
2022-11-24T16:39:03.074Z,12.90
2022-11-24T16:41:31.658Z,12.50
2022-11-24T16:43:59.967Z,10.33
2022-11-24T16:46:28.224Z,11.50
2022-11-24T16:49:01.320Z,15.03
2022-11-24T16:51:34.664Z,11.55
2022-11-24T16:54:05.047Z,14.77
2022-11-24T16:56:36.151Z,12.35
2022-11-24T16:59:04.526Z,15.47
2022-11-24T17:01:33.251Z,13.23
2022-11-24T17:04:01.963Z,11.60
2022-11-24T17:06:30.158Z,9.38
2022-11-24T17:08:58.311Z,10.10
2022-11-24T17:11:29.768Z,11.13
2022-11-24T17:13:58.769Z,10.47
2022-11-24T17:16:28.627Z,12.60
2022-11-24T17:18:58.609Z,15.70
2022-11-24T17:21:28.741Z,13.43
2022-11-24T17:23:58.074Z,12.20
2022-11-24T17:26:28.421Z,13.10
2022-11-24T17:28:56.913Z,13.20
2022-11-24T17:31:27.469Z,13.83
2022-11-24T17:33:58.300Z,11.10
2022-11-24T17:36:27.155Z,10.20
2022-11-24T17:38:55.387Z,14.53
2022-11-24T17:41:23.948Z,12.57
2022-11-24T17:43:56.542Z,13.23
2022-11-24T17:46:25.291Z,14.63
2022-11-24T17:48:54.059Z,12.80
2022-11-24T17:51:25.097Z,12.93
2022-11-24T17:53:55.656Z,16.60
2022-11-24T17:56:27.061Z,13.43
2022-11-24T17:58:58.846Z,13.13
2022-11-24T18:01:28.521Z,14.50
2022-11-24T18:03:57.043Z,15.87
2022-11-24T18:06:25.791Z,16.13
2022-11-24T18:08:54.950Z,15.63
2022-11-24T18:11:31.119Z,16.97
2022-11-24T18:14:03.493Z,26.47
2022-11-24T18:16:34.099Z,31.40
2022-11-24T18:19:10.652Z,38.23
2022-11-24T18:21:40.949Z,25.40
2022-11-24T18:24:10.425Z,20.40
2022-11-24T18:26:39.081Z,20.73
2022-11-24T18:29:08.808Z,20.07
2022-11-24T18:31:37.115Z,18.23
2022-11-24T18:34:06.832Z,15.83
2022-11-24T18:36:35.688Z,14.57
2022-11-24T18:39:05.157Z,12.90
2022-11-24T18:41:33.498Z,14.40
2022-11-24T18:44:03.219Z,16.70
2022-11-24T18:46:32.834Z,13.40
2022-11-24T18:49:01.044Z,15.83
2022-11-24T18:51:29.963Z,14.10
2022-11-24T18:53:58.984Z,17.27
2022-11-24T18:56:27.784Z,12.87
2022-11-24T18:58:57.439Z,13.53
2022-11-24T19:01:28.148Z,11.43
2022-11-24T19:04:00.499Z,12.67
2022-11-24T19:06:32.361Z,12.90
2022-11-24T19:09:03.319Z,13.37
2022-11-24T19:11:35.282Z,11.73
2022-11-24T19:14:05.014Z,13.77
2022-11-24T19:16:34.065Z,11.10
2022-11-24T19:19:04.741Z,9.53
2022-11-24T19:21:35.423Z,19.27
2022-11-24T19:24:05.627Z,14.63
2022-11-24T19:26:35.278Z,13.67
2022-11-24T19:29:04.127Z,12.90
2022-11-24T19:31:33.202Z,11.23
2022-11-24T19:34:03.483Z,11.77
2022-11-24T19:36:31.800Z,18.87
2022-11-24T19:39:00.902Z,18.17
2022-11-24T19:41:31.748Z,18.17
2022-11-24T19:44:00.768Z,16.20
2022-11-24T19:46:30.968Z,17.80
2022-11-24T19:49:03.890Z,17.97
2022-11-24T19:51:34.711Z,18.50
2022-11-24T19:54:05.155Z,15.13
2022-11-24T19:56:35.855Z,15.83
2022-11-24T19:59:07.881Z,27.90
2022-11-24T20:01:39.869Z,17.70
2022-11-24T20:04:13.704Z,24.00
2022-11-24T20:06:44.846Z,25.67
2022-11-24T20:09:16.093Z,19.83
2022-11-24T20:11:44.938Z,29.53
2022-11-24T20:14:15.392Z,24.73
2022-11-24T20:16:45.504Z,23.90
2022-11-24T20:19:17.483Z,23.90
2022-11-24T20:21:49.247Z,27.10
2022-11-24T20:24:21.006Z,22.10
2022-11-24T20:26:52.582Z,25.67
2022-11-24T20:29:21.565Z,20.77
2022-11-24T20:31:53.402Z,20.27
2022-11-24T20:34:24.567Z,21.13
2022-11-24T20:36:54.073Z,18.50
2022-11-24T20:39:26.146Z,17.67
2022-11-24T20:41:55.221Z,20.80
2022-11-24T20:44:26.709Z,18.48
2022-11-24T20:46:58.096Z,16.00
2022-11-24T20:49:28.974Z,14.17
2022-11-24T20:51:57.369Z,12.07
2022-11-24T20:54:25.664Z,18.50
2022-11-24T20:56:53.951Z,16.53
2022-11-24T20:59:25.229Z,17.53
2022-11-24T21:01:55.266Z,13.80
2022-11-24T21:04:27.555Z,16.60
2022-11-24T21:06:55.947Z,14.90
2022-11-24T21:09:24.696Z,17.20
2022-11-24T21:11:52.873Z,16.50
2022-11-24T21:14:21.161Z,13.40
2022-11-24T21:16:49.378Z,10.50
2022-11-24T21:19:18.710Z,10.90
2022-11-24T21:21:48.799Z,13.03
2022-11-24T21:24:21.460Z,15.07
2022-11-24T21:26:51.737Z,15.30
2022-11-24T21:29:23.303Z,14.33
2022-11-24T21:31:51.900Z,18.60
2022-11-24T21:34:20.353Z,15.70
2022-11-24T21:36:50.060Z,17.70
2022-11-24T21:39:18.559Z,19.03
2022-11-24T21:41:47.560Z,27.13
2022-11-24T21:44:16.075Z,17.13
2022-11-24T21:46:49.595Z,19.73
2022-11-24T21:49:20.790Z,18.73
2022-11-24T21:51:55.058Z,22.17
2022-11-24T21:54:23.386Z,23.70
2022-11-24T21:56:51.481Z,20.63
2022-11-24T21:59:21.955Z,22.93
2022-11-24T22:01:50.147Z,22.67
2022-11-24T22:04:18.431Z,20.40
2022-11-24T22:06:46.589Z,19.93
2022-11-24T22:09:18.178Z,18.10
2022-11-24T22:11:49.113Z,17.33
2022-11-24T22:14:17.399Z,13.77
2022-11-24T22:16:45.954Z,15.80
2022-11-24T22:19:14.196Z,17.70
2022-11-24T22:21:42.474Z,17.20
2022-11-24T22:24:10.923Z,20.40
2022-11-24T22:26:40.569Z,18.97
2022-11-24T22:29:08.875Z,20.73
2022-11-24T22:31:37.076Z,22.83
2022-11-24T22:34:05.317Z,20.17
2022-11-24T22:36:33.559Z,18.90
2022-11-24T22:39:04.254Z,17.00
2022-11-24T22:41:34.342Z,20.57
2022-11-24T22:44:04.564Z,16.20
2022-11-24T22:46:33.667Z,22.90
2022-11-24T22:49:02.503Z,22.63
2022-11-24T22:51:33.501Z,25.63
2022-11-24T22:54:04.172Z,23.30
2022-11-24T22:56:32.877Z,25.33
2022-11-24T22:59:04.433Z,28.33
2022-11-24T23:01:34.875Z,32.20
2022-11-24T23:04:04.258Z,24.53
2022-11-24T23:06:34.689Z,22.40
2022-11-24T23:09:04.389Z,21.60
2022-11-24T23:11:38.323Z,22.63
2022-11-24T23:14:13.636Z,21.73
2022-11-24T23:16:42.379Z,21.03
2022-11-24T23:19:10.825Z,18.50
2022-11-24T23:21:39.880Z,15.47
2022-11-24T23:24:09.607Z,13.10
2022-11-24T23:26:40.602Z,12.60
2022-11-24T23:29:12.404Z,12.33
2022-11-24T23:31:41.085Z,14.50
2022-11-24T23:34:10.031Z,13.67
2022-11-24T23:36:38.226Z,13.23
2022-11-24T23:39:08.792Z,12.10
2022-11-24T23:41:37.040Z,19.07
2022-11-24T23:44:05.874Z,16.10
2022-11-24T23:46:35.709Z,13.00
2022-11-24T23:49:03.929Z,12.70
2022-11-24T23:51:34.022Z,16.67
2022-11-24T23:54:02.570Z,20.43
2022-11-24T23:56:33.599Z,17.17
2022-11-24T23:59:03.221Z,14.57
